sensor_id;sensor_type;location;lat;lon;timestamp;P1;durP1;ratioP1;P2;durP2;ratioP2
1376;SDS011;682;52.502;13.488;2023-05-20T00:01:18;7.10;;;4.97;;
1376;SDS011;682;52.502;13.488;2023-05-20T00:03:46;5.87;;;4.30;;
1376;SDS011;682;52.502;13.488;2023-05-20T00:06:14;7.10;;;4.23;;
1376;SDS011;682;52.502;13.488;2023-05-20T00:08:41;4.50;;;4.10;;
1376;SDS011;682;52.502;13.488;2023-05-20T00:11:08;4.03;;;3.70;;
1376;SDS011;682;52.502;13.488;2023-05-20T00:13:36;7.40;;;4.77;;
1376;SDS011;682;52.502;13.488;2023-05-20T00:16:04;4.73;;;3.90;;
1376;SDS011;682;52.502;13.488;2023-05-20T00:18:31;4.30;;;3.90;;
1376;SDS011;682;52.502;13.488;2023-05-20T00:20:58;4.33;;;3.93;;
1376;SDS011;682;52.502;13.488;2023-05-20T00:23:25;4.50;;;4.10;;
1376;SDS011;682;52.502;13.488;2023-05-20T00:25:52;5.83;;;4.80;;
1376;SDS011;682;52.502;13.488;2023-05-20T00:28:18;3.93;;;3.63;;
1376;SDS011;682;52.502;13.488;2023-05-20T00:30:49;5.40;;;4.80;;
1376;SDS011;682;52.502;13.488;2023-05-20T00:33:16;6.10;;;4.30;;
1376;SDS011;682;52.502;13.488;2023-05-20T00:35:43;5.33;;;4.30;;
1376;SDS011;682;52.502;13.488;2023-05-20T00:38:10;4.30;;;3.90;;
1376;SDS011;682;52.502;13.488;2023-05-20T00:40:37;4.70;;;4.20;;
1376;SDS011;682;52.502;13.488;2023-05-20T00:43:03;5.30;;;4.23;;
1376;SDS011;682;52.502;13.488;2023-05-20T00:45:30;5.00;;;3.87;;
1376;SDS011;682;52.502;13.488;2023-05-20T00:47:59;4.40;;;4.00;;
1376;SDS011;682;52.502;13.488;2023-05-20T00:50:28;4.70;;;4.30;;
1376;SDS011;682;52.502;13.488;2023-05-20T00:52:55;4.50;;;3.90;;
1376;SDS011;682;52.502;13.488;2023-05-20T00:55:23;5.23;;;4.53;;
1376;SDS011;682;52.502;13.488;2023-05-20T00:57:50;5.53;;;4.70;;
1376;SDS011;682;52.502;13.488;2023-05-20T01:00:18;4.87;;;4.47;;
1376;SDS011;682;52.502;13.488;2023-05-20T01:02:45;4.47;;;4.07;;
1376;SDS011;682;52.502;13.488;2023-05-20T01:05:13;4.83;;;4.43;;
1376;SDS011;682;52.502;13.488;2023-05-20T01:07:40;5.00;;;4.50;;
1376;SDS011;682;52.502;13.488;2023-05-20T01:10:08;4.60;;;4.20;;
1376;SDS011;682;52.502;13.488;2023-05-20T01:12:36;4.53;;;4.13;;
1376;SDS011;682;52.502;13.488;2023-05-20T01:15:07;4.50;;;3.87;;
1376;SDS011;682;52.502;13.488;2023-05-20T01:17:36;5.20;;;4.10;;
1376;SDS011;682;52.502;13.488;2023-05-20T01:20:05;4.80;;;4.40;;
1376;SDS011;682;52.502;13.488;2023-05-20T01:22:45;5.83;;;4.60;;
1376;SDS011;682;52.502;13.488;2023-05-20T01:25:13;6.93;;;4.23;;
1376;SDS011;682;52.502;13.488;2023-05-20T01:27:42;6.43;;;4.80;;
1376;SDS011;682;52.502;13.488;2023-05-20T01:30:10;5.17;;;4.50;;
1376;SDS011;682;52.502;13.488;2023-05-20T01:32:40;5.37;;;4.40;;
1376;SDS011;682;52.502;13.488;2023-05-20T01:35:12;5.90;;;4.70;;
1376;SDS011;682;52.502;13.488;2023-05-20T01:37:42;4.97;;;4.47;;
1376;SDS011;682;52.502;13.488;2023-05-20T01:40:14;4.60;;;4.20;;
1376;SDS011;682;52.502;13.488;2023-05-20T01:42:42;4.00;;;3.70;;
1376;SDS011;682;52.502;13.488;2023-05-20T01:45:10;5.37;;;4.70;;
1376;SDS011;682;52.502;13.488;2023-05-20T01:47:37;6.70;;;4.40;;
1376;SDS011;682;52.502;13.488;2023-05-20T01:50:05;6.97;;;4.70;;
1376;SDS011;682;52.502;13.488;2023-05-20T01:52:33;4.40;;;3.63;;
1376;SDS011;682;52.502;13.488;2023-05-20T01:55:01;4.67;;;4.27;;
1376;SDS011;682;52.502;13.488;2023-05-20T01:57:28;4.80;;;4.40;;
1376;SDS011;682;52.502;13.488;2023-05-20T01:59:58;7.03;;;4.00;;
1376;SDS011;682;52.502;13.488;2023-05-20T02:02:25;4.63;;;3.60;;
1376;SDS011;682;52.502;13.488;2023-05-20T02:04:52;5.40;;;4.90;;
1376;SDS011;682;52.502;13.488;2023-05-20T02:07:20;4.83;;;4.43;;
1376;SDS011;682;52.502;13.488;2023-05-20T02:09:47;5.73;;;4.23;;
1376;SDS011;682;52.502;13.488;2023-05-20T02:12:16;7.10;;;4.30;;
1376;SDS011;682;52.502;13.488;2023-05-20T02:14:43;5.70;;;4.97;;
1376;SDS011;682;52.502;13.488;2023-05-20T02:17:11;6.30;;;4.90;;
1376;SDS011;682;52.502;13.488;2023-05-20T02:19:40;4.80;;;4.37;;
1376;SDS011;682;52.502;13.488;2023-05-20T02:22:07;4.87;;;4.20;;
1376;SDS011;682;52.502;13.488;2023-05-20T02:24:35;7.93;;;4.97;;
1376;SDS011;682;52.502;13.488;2023-05-20T02:27:03;7.10;;;4.50;;
1376;SDS011;682;52.502;13.488;2023-05-20T02:29:31;4.77;;;4.33;;
1376;SDS011;682;52.502;13.488;2023-05-20T02:31:58;6.30;;;4.87;;
1376;SDS011;682;52.502;13.488;2023-05-20T02:34:28;4.30;;;3.93;;
1376;SDS011;682;52.502;13.488;2023-05-20T02:36:56;5.17;;;4.67;;
1376;SDS011;682;52.502;13.488;2023-05-20T02:39:23;5.23;;;4.43;;
1376;SDS011;682;52.502;13.488;2023-05-20T02:41:50;5.23;;;4.73;;
1376;SDS011;682;52.502;13.488;2023-05-20T02:44:17;5.40;;;4.50;;
1376;SDS011;682;52.502;13.488;2023-05-20T02:46:45;4.97;;;4.43;;
1376;SDS011;682;52.502;13.488;2023-05-20T02:49:13;4.50;;;4.10;;
1376;SDS011;682;52.502;13.488;2023-05-20T02:51:39;7.33;;;5.50;;
1376;SDS011;682;52.502;13.488;2023-05-20T02:54:06;6.20;;;5.00;;
1376;SDS011;682;52.502;13.488;2023-05-20T02:56:33;7.20;;;4.50;;
1376;SDS011;682;52.502;13.488;2023-05-20T02:59:01;5.10;;;4.70;;
1376;SDS011;682;52.502;13.488;2023-05-20T03:01:28;4.60;;;4.20;;
1376;SDS011;682;52.502;13.488;2023-05-20T03:03:59;5.20;;;4.70;;
1376;SDS011;682;52.502;13.488;2023-05-20T03:06:26;4.83;;;4.37;;
1376;SDS011;682;52.502;13.488;2023-05-20T03:08:54;5.70;;;5.20;;
1376;SDS011;682;52.502;13.488;2023-05-20T03:11:23;5.77;;;4.67;;
1376;SDS011;682;52.502;13.488;2023-05-20T03:13:50;6.63;;;5.27;;
1376;SDS011;682;52.502;13.488;2023-05-20T03:16:17;5.40;;;4.70;;
1376;SDS011;682;52.502;13.488;2023-05-20T03:18:44;6.40;;;4.30;;
1376;SDS011;682;52.502;13.488;2023-05-20T03:21:12;7.00;;;4.97;;
1376;SDS011;682;52.502;13.488;2023-05-20T03:23:39;9.90;;;5.83;;
1376;SDS011;682;52.502;13.488;2023-05-20T03:26:06;5.33;;;4.60;;
1376;SDS011;682;52.502;13.488;2023-05-20T03:28:34;5.97;;;4.50;;
1376;SDS011;682;52.502;13.488;2023-05-20T03:31:02;5.97;;;4.60;;
1376;SDS011;682;52.502;13.488;2023-05-20T03:33:32;5.30;;;4.80;;
1376;SDS011;682;52.502;13.488;2023-05-20T03:35:59;5.63;;;5.13;;
1376;SDS011;682;52.502;13.488;2023-05-20T03:38:28;6.73;;;5.17;;
1376;SDS011;682;52.502;13.488;2023-05-20T03:40:55;8.80;;;5.73;;
1376;SDS011;682;52.502;13.488;2023-05-20T03:43:22;9.23;;;5.13;;
1376;SDS011;682;52.502;13.488;2023-05-20T03:45:51;5.90;;;4.90;;
1376;SDS011;682;52.502;13.488;2023-05-20T03:48:18;5.90;;;4.17;;
1376;SDS011;682;52.502;13.488;2023-05-20T03:50:45;7.17;;;4.73;;
1376;SDS011;682;52.502;13.488;2023-05-20T03:53:12;5.53;;;4.83;;
1376;SDS011;682;52.502;13.488;2023-05-20T03:55:41;6.90;;;5.60;;
1376;SDS011;682;52.502;13.488;2023-05-20T03:58:08;5.27;;;4.73;;
1376;SDS011;682;52.502;13.488;2023-05-20T04:00:38;4.60;;;4.20;;
1376;SDS011;682;52.502;13.488;2023-05-20T04:03:05;6.70;;;5.17;;
1376;SDS011;682;52.502;13.488;2023-05-20T04:05:32;6.00;;;4.67;;
1376;SDS011;682;52.502;13.488;2023-05-20T04:08:01;6.50;;;5.37;;
1376;SDS011;682;52.502;13.488;2023-05-20T04:10:29;6.67;;;5.33;;
1376;SDS011;682;52.502;13.488;2023-05-20T04:13:01;6.10;;;5.50;;
1376;SDS011;682;52.502;13.488;2023-05-20T04:15:28;7.73;;;5.60;;
1376;SDS011;682;52.502;13.488;2023-05-20T04:17:55;7.20;;;4.60;;
1376;SDS011;682;52.502;13.488;2023-05-20T04:20:22;6.83;;;4.40;;
1376;SDS011;682;52.502;13.488;2023-05-20T04:22:49;5.97;;;5.03;;
1376;SDS011;682;52.502;13.488;2023-05-20T04:25:18;5.70;;;4.30;;
1376;SDS011;682;52.502;13.488;2023-05-20T04:27:45;8.93;;;5.73;;
1376;SDS011;682;52.502;13.488;2023-05-20T04:30:15;6.30;;;5.40;;
1376;SDS011;682;52.502;13.488;2023-05-20T04:32:42;8.13;;;5.87;;
1376;SDS011;682;52.502;13.488;2023-05-20T04:35:09;5.50;;;4.93;;
1376;SDS011;682;52.502;13.488;2023-05-20T04:37:37;6.80;;;5.47;;
1376;SDS011;682;52.502;13.488;2023-05-20T04:40:06;6.03;;;5.43;;
1376;SDS011;682;52.502;13.488;2023-05-20T04:42:34;5.67;;;4.90;;
1376;SDS011;682;52.502;13.488;2023-05-20T04:45:01;5.63;;;5.13;;
1376;SDS011;682;52.502;13.488;2023-05-20T04:47:31;9.20;;;5.83;;
1376;SDS011;682;52.502;13.488;2023-05-20T04:50:03;8.47;;;5.90;;
1376;SDS011;682;52.502;13.488;2023-05-20T04:52:34;8.17;;;5.73;;
1376;SDS011;682;52.502;13.488;2023-05-20T04:55:01;7.37;;;6.20;;
1376;SDS011;682;52.502;13.488;2023-05-20T04:57:28;6.40;;;5.80;;
1376;SDS011;682;52.502;13.488;2023-05-20T05:00:01;6.30;;;5.70;;
1376;SDS011;682;52.502;13.488;2023-05-20T05:02:33;7.50;;;5.40;;
1376;SDS011;682;52.502;13.488;2023-05-20T05:05:00;6.70;;;5.50;;
1376;SDS011;682;52.502;13.488;2023-05-20T05:07:27;8.20;;;5.40;;
1376;SDS011;682;52.502;13.488;2023-05-20T05:09:54;6.23;;;5.73;;
1376;SDS011;682;52.502;13.488;2023-05-20T05:12:21;8.30;;;5.70;;
1376;SDS011;682;52.502;13.488;2023-05-20T05:14:48;5.63;;;5.03;;
1376;SDS011;682;52.502;13.488;2023-05-20T05:17:15;6.40;;;5.40;;
1376;SDS011;682;52.502;13.488;2023-05-20T05:19:43;6.80;;;5.47;;
1376;SDS011;682;52.502;13.488;2023-05-20T05:22:10;7.47;;;6.70;;
1376;SDS011;682;52.502;13.488;2023-05-20T05:24:37;5.50;;;5.00;;
1376;SDS011;682;52.502;13.488;2023-05-20T05:27:04;6.20;;;5.23;;
1376;SDS011;682;52.502;13.488;2023-05-20T05:29:31;8.33;;;6.00;;
1376;SDS011;682;52.502;13.488;2023-05-20T05:31:58;6.50;;;5.90;;
1376;SDS011;682;52.502;13.488;2023-05-20T05:34:25;7.90;;;6.13;;
1376;SDS011;682;52.502;13.488;2023-05-20T05:36:54;7.63;;;6.77;;
1376;SDS011;682;52.502;13.488;2023-05-20T05:39:21;7.60;;;6.57;;
1376;SDS011;682;52.502;13.488;2023-05-20T05:41:48;6.20;;;5.23;;
1376;SDS011;682;52.502;13.488;2023-05-20T05:44:15;6.30;;;5.67;;
1376;SDS011;682;52.502;13.488;2023-05-20T05:46:42;6.93;;;6.37;;
1376;SDS011;682;52.502;13.488;2023-05-20T05:49:09;9.53;;;6.53;;
1376;SDS011;682;52.502;13.488;2023-05-20T05:51:36;6.70;;;5.70;;
1376;SDS011;682;52.502;13.488;2023-05-20T05:54:04;6.80;;;6.13;;
1376;SDS011;682;52.502;13.488;2023-05-20T05:56:31;8.37;;;6.03;;
1376;SDS011;682;52.502;13.488;2023-05-20T05:58:58;6.27;;;5.67;;
1376;SDS011;682;52.502;13.488;2023-05-20T06:01:25;8.10;;;6.90;;
1376;SDS011;682;52.502;13.488;2023-05-20T06:03:52;9.07;;;6.70;;
1376;SDS011;682;52.502;13.488;2023-05-20T06:06:19;7.97;;;6.63;;
1376;SDS011;682;52.502;13.488;2023-05-20T06:08:46;6.90;;;6.10;;
1376;SDS011;682;52.502;13.488;2023-05-20T06:11:14;7.93;;;7.07;;
1376;SDS011;682;52.502;13.488;2023-05-20T06:13:41;7.40;;;5.93;;
1376;SDS011;682;52.502;13.488;2023-05-20T06:16:08;9.53;;;6.83;;
1376;SDS011;682;52.502;13.488;2023-05-20T06:18:35;7.90;;;7.17;;
1376;SDS011;682;52.502;13.488;2023-05-20T06:21:03;7.93;;;6.60;;
1376;SDS011;682;52.502;13.488;2023-05-20T06:23:30;7.67;;;6.77;;
1376;SDS011;682;52.502;13.488;2023-05-20T06:25:59;8.53;;;6.57;;
1376;SDS011;682;52.502;13.488;2023-05-20T06:28:27;9.27;;;7.10;;
1376;SDS011;682;52.502;13.488;2023-05-20T06:30:55;6.43;;;5.87;;
1376;SDS011;682;52.502;13.488;2023-05-20T06:33:22;16.80;;;7.20;;
1376;SDS011;682;52.502;13.488;2023-05-20T06:35:50;6.83;;;6.17;;
1376;SDS011;682;52.502;13.488;2023-05-20T06:38:17;7.40;;;5.57;;
1376;SDS011;682;52.502;13.488;2023-05-20T06:40:45;7.83;;;7.07;;
1376;SDS011;682;52.502;13.488;2023-05-20T06:43:13;8.30;;;6.87;;
1376;SDS011;682;52.502;13.488;2023-05-20T06:45:41;10.13;;;6.80;;
1376;SDS011;682;52.502;13.488;2023-05-20T06:48:09;12.80;;;8.07;;
1376;SDS011;682;52.502;13.488;2023-05-20T06:50:36;9.37;;;7.60;;
1376;SDS011;682;52.502;13.488;2023-05-20T06:53:03;8.57;;;6.40;;
1376;SDS011;682;52.502;13.488;2023-05-20T06:55:30;8.17;;;7.10;;
1376;SDS011;682;52.502;13.488;2023-05-20T06:57:57;7.27;;;6.10;;
1376;SDS011;682;52.502;13.488;2023-05-20T07:00:24;8.47;;;6.60;;
1376;SDS011;682;52.502;13.488;2023-05-20T07:02:52;8.53;;;6.93;;
1376;SDS011;682;52.502;13.488;2023-05-20T07:05:20;8.73;;;7.83;;
1376;SDS011;682;52.502;13.488;2023-05-20T07:07:48;7.00;;;6.33;;
1376;SDS011;682;52.502;13.488;2023-05-20T07:10:15;7.60;;;6.80;;
1376;SDS011;682;52.502;13.488;2023-05-20T07:12:42;7.73;;;6.60;;
1376;SDS011;682;52.502;13.488;2023-05-20T07:15:09;7.23;;;6.53;;
1376;SDS011;682;52.502;13.488;2023-05-20T07:17:36;7.27;;;6.20;;
1376;SDS011;682;52.502;13.488;2023-05-20T07:20:05;7.37;;;6.57;;
1376;SDS011;682;52.502;13.488;2023-05-20T07:22:33;7.73;;;6.63;;
1376;SDS011;682;52.502;13.488;2023-05-20T07:25:00;6.87;;;6.23;;
1376;SDS011;682;52.502;13.488;2023-05-20T07:27:27;6.83;;;6.23;;
1376;SDS011;682;52.502;13.488;2023-05-20T07:29:54;7.80;;;6.60;;
1376;SDS011;682;52.502;13.488;2023-05-20T07:32:21;7.83;;;6.70;;
1376;SDS011;682;52.502;13.488;2023-05-20T07:34:48;8.00;;;6.53;;
1376;SDS011;682;52.502;13.488;2023-05-20T07:37:16;6.93;;;6.17;;
1376;SDS011;682;52.502;13.488;2023-05-20T07:39:43;8.53;;;7.00;;
1376;SDS011;682;52.502;13.488;2023-05-20T07:42:10;9.50;;;6.80;;
1376;SDS011;682;52.502;13.488;2023-05-20T07:44:46;8.40;;;6.67;;
1376;SDS011;682;52.502;13.488;2023-05-20T07:47:12;8.03;;;7.20;;
1376;SDS011;682;52.502;13.488;2023-05-20T07:49:39;9.87;;;6.37;;
1376;SDS011;682;52.502;13.488;2023-05-20T07:52:08;7.40;;;6.37;;
1376;SDS011;682;52.502;13.488;2023-05-20T07:54:37;7.43;;;6.67;;
1376;SDS011;682;52.502;13.488;2023-05-20T07:57:04;8.07;;;6.80;;
1376;SDS011;682;52.502;13.488;2023-05-20T07:59:31;6.83;;;6.20;;
1376;SDS011;682;52.502;13.488;2023-05-20T08:01:58;8.93;;;6.60;;
1376;SDS011;682;52.502;13.488;2023-05-20T08:04:26;7.37;;;6.67;;
1376;SDS011;682;52.502;13.488;2023-05-20T08:06:55;7.43;;;6.47;;
1376;SDS011;682;52.502;13.488;2023-05-20T08:09:23;7.63;;;6.40;;
1376;SDS011;682;52.502;13.488;2023-05-20T08:11:51;6.27;;;5.70;;
1376;SDS011;682;52.502;13.488;2023-05-20T08:14:18;10.03;;;6.70;;
1376;SDS011;682;52.502;13.488;2023-05-20T08:16:45;7.37;;;6.67;;
1376;SDS011;682;52.502;13.488;2023-05-20T08:19:12;6.50;;;5.87;;
1376;SDS011;682;52.502;13.488;2023-05-20T08:21:39;6.97;;;6.37;;
1376;SDS011;682;52.502;13.488;2023-05-20T08:24:10;7.30;;;6.70;;
1376;SDS011;682;52.502;13.488;2023-05-20T08:26:37;6.53;;;5.93;;
1376;SDS011;682;52.502;13.488;2023-05-20T08:29:05;6.60;;;6.00;;
1376;SDS011;682;52.502;13.488;2023-05-20T08:31:33;6.13;;;5.63;;
1376;SDS011;682;52.502;13.488;2023-05-20T08:34:00;8.30;;;6.40;;
1376;SDS011;682;52.502;13.488;2023-05-20T08:36:27;6.67;;;6.07;;
1376;SDS011;682;52.502;13.488;2023-05-20T08:38:55;6.27;;;5.67;;
1376;SDS011;682;52.502;13.488;2023-05-20T08:41:22;7.70;;;6.90;;
1376;SDS011;682;52.502;13.488;2023-05-20T08:43:49;6.30;;;5.70;;
1376;SDS011;682;52.502;13.488;2023-05-20T08:46:21;7.10;;;6.50;;
1376;SDS011;682;52.502;13.488;2023-05-20T08:48:48;5.53;;;5.13;;
1376;SDS011;682;52.502;13.488;2023-05-20T08:51:17;7.90;;;7.20;;
1376;SDS011;682;52.502;13.488;2023-05-20T08:53:47;6.80;;;6.10;;
1376;SDS011;682;52.502;13.488;2023-05-20T08:56:17;8.50;;;6.50;;
1376;SDS011;682;52.502;13.488;2023-05-20T08:58:46;7.57;;;6.80;;
1376;SDS011;682;52.502;13.488;2023-05-20T09:01:13;6.10;;;5.50;;
1376;SDS011;682;52.502;13.488;2023-05-20T09:03:42;9.27;;;6.70;;
1376;SDS011;682;52.502;13.488;2023-05-20T09:06:09;7.00;;;6.40;;
1376;SDS011;682;52.502;13.488;2023-05-20T09:08:41;7.43;;;6.23;;
1376;SDS011;682;52.502;13.488;2023-05-20T09:11:09;7.17;;;6.47;;
1376;SDS011;682;52.502;13.488;2023-05-20T09:13:36;9.43;;;6.67;;
1376;SDS011;682;52.502;13.488;2023-05-20T09:16:03;7.70;;;6.40;;
1376;SDS011;682;52.502;13.488;2023-05-20T09:18:30;9.23;;;7.13;;
1376;SDS011;682;52.502;13.488;2023-05-20T09:21:03;7.37;;;5.80;;
1376;SDS011;682;52.502;13.488;2023-05-20T09:23:30;8.10;;;7.27;;
1376;SDS011;682;52.502;13.488;2023-05-20T09:25:59;8.13;;;7.40;;
1376;SDS011;682;52.502;13.488;2023-05-20T09:28:28;9.33;;;7.07;;
1376;SDS011;682;52.502;13.488;2023-05-20T09:30:56;7.83;;;7.13;;
1376;SDS011;682;52.502;13.488;2023-05-20T09:33:26;10.37;;;8.63;;
1376;SDS011;682;52.502;13.488;2023-05-20T09:36:02;9.13;;;8.30;;
1376;SDS011;682;52.502;13.488;2023-05-20T09:38:33;9.60;;;8.60;;
1376;SDS011;682;52.502;13.488;2023-05-20T09:41:03;10.70;;;9.60;;
1376;SDS011;682;52.502;13.488;2023-05-20T09:43:33;11.90;;;9.07;;
1376;SDS011;682;52.502;13.488;2023-05-20T09:46:00;10.63;;;9.47;;
1376;SDS011;682;52.502;13.488;2023-05-20T09:48:29;10.30;;;9.40;;
1376;SDS011;682;52.502;13.488;2023-05-20T09:50:57;9.60;;;8.73;;
1376;SDS011;682;52.502;13.488;2023-05-20T09:53:26;9.87;;;8.97;;
1376;SDS011;682;52.502;13.488;2023-05-20T09:55:53;13.10;;;11.40;;
1376;SDS011;682;52.502;13.488;2023-05-20T09:58:21;10.20;;;9.30;;
1376;SDS011;682;52.502;13.488;2023-05-20T10:00:49;12.30;;;9.83;;
1376;SDS011;682;52.502;13.488;2023-05-20T10:03:16;8.90;;;7.90;;
1376;SDS011;682;52.502;13.488;2023-05-20T10:05:47;12.17;;;10.97;;
1376;SDS011;682;52.502;13.488;2023-05-20T10:08:26;11.03;;;9.77;;
1376;SDS011;682;52.502;13.488;2023-05-20T10:11:15;9.90;;;9.07;;
1376;SDS011;682;52.502;13.488;2023-05-20T10:13:56;9.87;;;8.87;;
1376;SDS011;682;52.502;13.488;2023-05-20T10:16:37;9.97;;;8.87;;
1376;SDS011;682;52.502;13.488;2023-05-20T10:19:13;10.50;;;9.50;;
1376;SDS011;682;52.502;13.488;2023-05-20T10:21:55;10.60;;;9.60;;
1376;SDS011;682;52.502;13.488;2023-05-20T10:24:29;9.67;;;8.77;;
1376;SDS011;682;52.502;13.488;2023-05-20T10:26:57;12.40;;;11.07;;
1376;SDS011;682;52.502;13.488;2023-05-20T10:29:27;10.63;;;9.63;;
1376;SDS011;682;52.502;13.488;2023-05-20T10:31:54;9.80;;;8.80;;
1376;SDS011;682;52.502;13.488;2023-05-20T10:34:21;10.77;;;9.67;;
1376;SDS011;682;52.502;13.488;2023-05-20T10:36:58;9.93;;;8.97;;
1376;SDS011;682;52.502;13.488;2023-05-20T10:39:26;9.50;;;8.60;;
1376;SDS011;682;52.502;13.488;2023-05-20T10:42:04;8.90;;;8.10;;
1376;SDS011;682;52.502;13.488;2023-05-20T10:44:39;10.37;;;9.00;;
1376;SDS011;682;52.502;13.488;2023-05-20T10:47:07;11.13;;;10.10;;
1376;SDS011;682;52.502;13.488;2023-05-20T10:49:35;8.47;;;7.70;;
1376;SDS011;682;52.502;13.488;2023-05-20T10:52:06;10.57;;;9.50;;
1376;SDS011;682;52.502;13.488;2023-05-20T10:54:36;9.70;;;8.77;;
1376;SDS011;682;52.502;13.488;2023-05-20T10:57:09;10.83;;;9.73;;
1376;SDS011;682;52.502;13.488;2023-05-20T10:59:39;10.17;;;8.83;;
1376;SDS011;682;52.502;13.488;2023-05-20T11:02:07;13.20;;;8.90;;
1376;SDS011;682;52.502;13.488;2023-05-20T11:04:37;9.43;;;8.40;;
1376;SDS011;682;52.502;13.488;2023-05-20T11:07:05;14.07;;;10.37;;
1376;SDS011;682;52.502;13.488;2023-05-20T11:09:32;10.00;;;9.00;;
1376;SDS011;682;52.502;13.488;2023-05-20T11:12:00;11.57;;;10.57;;
1376;SDS011;682;52.502;13.488;2023-05-20T11:14:27;11.53;;;10.40;;
1376;SDS011;682;52.502;13.488;2023-05-20T11:16:55;10.83;;;9.83;;
1376;SDS011;682;52.502;13.488;2023-05-20T11:19:26;10.70;;;9.70;;
1376;SDS011;682;52.502;13.488;2023-05-20T11:21:53;9.97;;;9.07;;
1376;SDS011;682;52.502;13.488;2023-05-20T11:24:23;9.50;;;8.70;;
1376;SDS011;682;52.502;13.488;2023-05-20T11:26:51;10.27;;;8.43;;
1376;SDS011;682;52.502;13.488;2023-05-20T11:29:21;8.60;;;7.90;;
1376;SDS011;682;52.502;13.488;2023-05-20T11:31:48;9.50;;;8.50;;
1376;SDS011;682;52.502;13.488;2023-05-20T11:34:18;14.63;;;8.50;;
1376;SDS011;682;52.502;13.488;2023-05-20T11:36:46;11.80;;;9.43;;
1376;SDS011;682;52.502;13.488;2023-05-20T11:39:16;8.87;;;7.97;;
1376;SDS011;682;52.502;13.488;2023-05-20T11:41:43;9.00;;;8.10;;
1376;SDS011;682;52.502;13.488;2023-05-20T11:44:10;8.90;;;8.10;;
1376;SDS011;682;52.502;13.488;2023-05-20T11:46:42;10.70;;;9.60;;
1376;SDS011;682;52.502;13.488;2023-05-20T11:49:11;10.77;;;9.80;;
1376;SDS011;682;52.502;13.488;2023-05-20T11:51:39;9.77;;;8.77;;
1376;SDS011;682;52.502;13.488;2023-05-20T11:54:06;9.73;;;8.93;;
1376;SDS011;682;52.502;13.488;2023-05-20T11:56:34;9.40;;;8.43;;
1376;SDS011;682;52.502;13.488;2023-05-20T11:59:02;9.10;;;8.30;;
1376;SDS011;682;52.502;13.488;2023-05-20T12:01:31;9.10;;;8.20;;
1376;SDS011;682;52.502;13.488;2023-05-20T12:04:03;9.70;;;8.77;;
1376;SDS011;682;52.502;13.488;2023-05-20T12:06:30;9.10;;;8.30;;
1376;SDS011;682;52.502;13.488;2023-05-20T12:08:57;9.40;;;8.37;;
1376;SDS011;682;52.502;13.488;2023-05-20T12:11:25;9.13;;;8.17;;
1376;SDS011;682;52.502;13.488;2023-05-20T12:13:51;9.67;;;8.90;;
1376;SDS011;682;52.502;13.488;2023-05-20T12:16:18;9.33;;;8.43;;
1376;SDS011;682;52.502;13.488;2023-05-20T12:18:45;11.20;;;10.13;;
1376;SDS011;682;52.502;13.488;2023-05-20T12:21:14;10.03;;;9.03;;
1376;SDS011;682;52.502;13.488;2023-05-20T12:23:41;12.33;;;10.10;;
1376;SDS011;682;52.502;13.488;2023-05-20T12:26:07;11.10;;;9.50;;
1376;SDS011;682;52.502;13.488;2023-05-20T12:28:34;10.47;;;9.47;;
1376;SDS011;682;52.502;13.488;2023-05-20T12:31:01;11.30;;;9.97;;
1376;SDS011;682;52.502;13.488;2023-05-20T12:33:29;10.50;;;7.83;;
1376;SDS011;682;52.502;13.488;2023-05-20T12:35:55;9.53;;;8.63;;
1376;SDS011;682;52.502;13.488;2023-05-20T12:38:24;9.67;;;8.77;;
1376;SDS011;682;52.502;13.488;2023-05-20T12:40:52;10.07;;;9.27;;
1376;SDS011;682;52.502;13.488;2023-05-20T12:43:19;12.27;;;9.67;;
1376;SDS011;682;52.502;13.488;2023-05-20T12:45:45;9.97;;;9.07;;
1376;SDS011;682;52.502;13.488;2023-05-20T12:48:12;9.43;;;8.63;;
1376;SDS011;682;52.502;13.488;2023-05-20T12:50:39;9.23;;;8.43;;
1376;SDS011;682;52.502;13.488;2023-05-20T12:53:06;9.93;;;8.73;;
1376;SDS011;682;52.502;13.488;2023-05-20T12:55:35;9.03;;;8.20;;
1376;SDS011;682;52.502;13.488;2023-05-20T12:58:05;10.47;;;9.40;;
1376;SDS011;682;52.502;13.488;2023-05-20T13:00:33;10.60;;;9.50;;
1376;SDS011;682;52.502;13.488;2023-05-20T13:03:00;9.90;;;9.00;;
1376;SDS011;682;52.502;13.488;2023-05-20T13:05:27;8.93;;;8.33;;
1376;SDS011;682;52.502;13.488;2023-05-20T13:07:54;9.60;;;8.83;;
1376;SDS011;682;52.502;13.488;2023-05-20T13:10:21;8.77;;;8.10;;
1376;SDS011;682;52.502;13.488;2023-05-20T13:12:49;9.80;;;8.90;;
1376;SDS011;682;52.502;13.488;2023-05-20T13:15:16;9.53;;;8.53;;
1376;SDS011;682;52.502;13.488;2023-05-20T13:17:43;9.93;;;9.13;;
1376;SDS011;682;52.502;13.488;2023-05-20T13:20:10;9.23;;;8.30;;
1376;SDS011;682;52.502;13.488;2023-05-20T13:22:38;10.37;;;9.30;;
1376;SDS011;682;52.502;13.488;2023-05-20T13:25:05;9.77;;;8.97;;
1376;SDS011;682;52.502;13.488;2023-05-20T13:27:33;9.10;;;8.40;;
1376;SDS011;682;52.502;13.488;2023-05-20T13:30:01;8.10;;;7.40;;
1376;SDS011;682;52.502;13.488;2023-05-20T13:32:30;8.53;;;7.63;;
1376;SDS011;682;52.502;13.488;2023-05-20T13:34:57;8.60;;;7.90;;
1376;SDS011;682;52.502;13.488;2023-05-20T13:37:24;8.43;;;7.60;;
1376;SDS011;682;52.502;13.488;2023-05-20T13:39:51;8.57;;;7.77;;
1376;SDS011;682;52.502;13.488;2023-05-20T13:42:18;9.07;;;8.20;;
1376;SDS011;682;52.502;13.488;2023-05-20T13:44:45;9.37;;;8.57;;
1376;SDS011;682;52.502;13.488;2023-05-20T13:47:13;9.30;;;8.50;;
1376;SDS011;682;52.502;13.488;2023-05-20T13:49:40;8.30;;;7.60;;
1376;SDS011;682;52.502;13.488;2023-05-20T13:52:07;9.57;;;8.77;;
1376;SDS011;682;52.502;13.488;2023-05-20T13:54:34;9.87;;;8.83;;
1376;SDS011;682;52.502;13.488;2023-05-20T13:57:01;8.73;;;7.93;;
1376;SDS011;682;52.502;13.488;2023-05-20T13:59:31;8.67;;;7.77;;
1376;SDS011;682;52.502;13.488;2023-05-20T14:01:58;8.93;;;7.63;;
1376;SDS011;682;52.502;13.488;2023-05-20T14:04:27;9.10;;;8.30;;
1376;SDS011;682;52.502;13.488;2023-05-20T14:06:55;9.00;;;8.10;;
1376;SDS011;682;52.502;13.488;2023-05-20T14:09:23;8.40;;;7.70;;
1376;SDS011;682;52.502;13.488;2023-05-20T14:11:50;8.27;;;7.60;;
1376;SDS011;682;52.502;13.488;2023-05-20T14:14:17;8.27;;;7.67;;
1376;SDS011;682;52.502;13.488;2023-05-20T14:16:44;8.23;;;7.63;;
1376;SDS011;682;52.502;13.488;2023-05-20T14:19:11;7.90;;;7.30;;
1376;SDS011;682;52.502;13.488;2023-05-20T14:21:39;9.30;;;8.40;;
1376;SDS011;682;52.502;13.488;2023-05-20T14:24:06;7.13;;;6.63;;
1376;SDS011;682;52.502;13.488;2023-05-20T14:26:33;8.30;;;7.50;;
1376;SDS011;682;52.502;13.488;2023-05-20T14:29:00;8.13;;;7.43;;
1376;SDS011;682;52.502;13.488;2023-05-20T14:31:27;7.57;;;7.00;;
1376;SDS011;682;52.502;13.488;2023-05-20T14:33:54;7.83;;;7.23;;
1376;SDS011;682;52.502;13.488;2023-05-20T14:36:21;8.60;;;7.90;;
1376;SDS011;682;52.502;13.488;2023-05-20T14:38:49;8.20;;;7.50;;
1376;SDS011;682;52.502;13.488;2023-05-20T14:41:16;7.60;;;7.10;;
1376;SDS011;682;52.502;13.488;2023-05-20T14:43:43;8.27;;;7.57;;
1376;SDS011;682;52.502;13.488;2023-05-20T14:46:10;7.73;;;7.13;;
1376;SDS011;682;52.502;13.488;2023-05-20T14:48:37;8.60;;;7.37;;
1376;SDS011;682;52.502;13.488;2023-05-20T14:51:04;7.83;;;7.23;;
1376;SDS011;682;52.502;13.488;2023-05-20T14:53:31;7.60;;;7.00;;
1376;SDS011;682;52.502;13.488;2023-05-20T14:56:00;7.40;;;6.80;;
1376;SDS011;682;52.502;13.488;2023-05-20T14:58:27;7.93;;;7.30;;
1376;SDS011;682;52.502;13.488;2023-05-20T15:00:54;9.47;;;8.73;;
1376;SDS011;682;52.502;13.488;2023-05-20T15:03:21;7.60;;;6.97;;
1376;SDS011;682;52.502;13.488;2023-05-20T15:05:48;8.63;;;7.83;;
1376;SDS011;682;52.502;13.488;2023-05-20T15:08:15;7.97;;;7.27;;
1376;SDS011;682;52.502;13.488;2023-05-20T15:10:42;7.80;;;7.10;;
1376;SDS011;682;52.502;13.488;2023-05-20T15:13:10;7.50;;;6.90;;
1376;SDS011;682;52.502;13.488;2023-05-20T15:15:38;7.83;;;7.03;;
1376;SDS011;682;52.502;13.488;2023-05-20T15:18:05;8.00;;;7.40;;